ADDS METAR Data INFO
IDs: Format: Raw Decoded Include TAF

Data at: 0223 UTC 14 Dec 2017

KOSU 140153Z 18005KT 9SM -SN OVC036 00/M06 A2939 RMK AO2 SNB09 SLP961 P0000 T00001056
KOSU 140053Z 17008KT 10SM OVC045 M01/M08 A2941 RMK AO2 SNE04 SLP971 P0000 T10061078
KOSU 132353Z 17007KT 6SM -SN OVC028 M02/M07 A2944 RMK AO2 SNB03E16B37 PRESFR SLP981 P0000 60000 T10171072 11017 21044 56014
KOSU 132320Z 19010G20KT 9SM SCT026 OVC046 M02/M08 A2947 RMK AO2 SNB03E16 P0000 T10171078
KOSU 132305Z 19013G20KT 7SM -SN BKN028 OVC050 M02/M08 A2948 RMK AO2 SNB03 P0000 T10171083
KOSU 132253Z 17012KT 10SM OVC032 M02/M10 A2948 RMK AO2 SLP993 T10221100
KOSU 132153Z 16013KT 10SM BKN060 M03/M11 A2948 RMK AO2 SLP995 T10281106
KOSU 132053Z 16016G22KT 10SM CLR M03/M11 A2949 RMK AO2 SLP998 T10281111 56069
KOSU 131953Z 15014KT 10SM SCT100 M03/M11 A2955 RMK AO2 SLP017 T10331111
KOSU 131853Z 15012KT 10SM BKN100 BKN120 M04/M11 A2963 RMK AO2 PRESFR SLP044 T10391111
KOSU 131753Z 17011KT 10SM BKN050 OVC065 M04/M11 A2970 RMK AO2 PRESFR SLP070 6//// T10441111 11044 21089
KOSU 131653Z 18011KT 10SM OVC070 M05/M12 A2976 RMK AO2 SLP091 T10501117
KOSU 131553Z 19007KT 10SM FEW050 BKN090 M06/M11 A2982 RMK AO2 SLP111 T10561111
KOSU 131453Z 18009KT 10SM OVC040 M07/M11 A2983 RMK AO2 SLP114 T10671106 58023
KOSU 131353Z 20008KT 10SM BKN042 OVC050 M08/M12 A2987 RMK AO2 SLP127 T10781117
KOSU 131253Z 21006KT 10SM OVC075 M08/M12 A2989 RMK AO2 SLP135 T10831122
KOSU 131153Z 22006KT 10SM BKN110 M09/M12 A2990 RMK AO2 SLP138 60000 T10891122 11072 21106 58000
KOSU 131053Z AUTO 25006KT 10SM CLR M11/M14 A2991 RMK AO2 SLP142 T11061139
KOSU 130953Z AUTO 25007KT 10SM BKN041 M09/M13 A2990 RMK AO2 SLP140 T10891128
KOSU 130853Z AUTO 27010KT 10SM OVC041 M07/M12 A2990 RMK AO2 SNB0758E07 SLP138 P0000 60000 T10721117 58003
KOSU 130753Z AUTO 28012KT 10SM OVC041 M07/M11 A2991 RMK AO2 SNB29E41 SLP142 P0000 T10721111
KOSU 130653Z AUTO 29009KT 10SM OVC030 M07/M11 A2991 RMK AO2 SNE32 SLP140 P0000 T10721111
KOSU 130626Z AUTO 29009KT 8SM -SN OVC029 M07/M11 A2990 RMK AO2 P0000 T10721106
KOSU 130553Z AUTO 29009KT 9SM -SN BKN035 OVC050 M07/M10 A2991 RMK AO2 SNE0458B39 SLP141 P0000 60000 T10721100 11061 21078 58006
KOSU 130506Z AUTO 28009KT 10SM FEW020 SCT026 OVC050 M07/M10 A2992 RMK AO2 SNE0458 P0000 T10721100
KOSU 130453Z AUTO 29008KT 8SM -SN SCT018 BKN023 OVC050 M07/M10 A2992 RMK AO2 SLP145 P0000 T10721100 400391078
KOSU 130450Z AUTO 29012KT 6SM -SN FEW013 BKN020 OVC034 M07/M10 A2992 RMK AO2 P0000
KOSU 130439Z AUTO 28012KT 2SM -SN BR SCT012 OVC018 M07/M09 A2992 RMK AO2 P0000 T10721094
KOSU 130353Z 31007KT 1SM -SN BR VV013 M08/M09 A2993 RMK AO2 SLP147 P0000 T10781094
KOSU 130307Z 32010KT 1SM -SN BR SCT011 BKN020 OVC025 M08/M09 A2993 RMK AO2 P0000 T10781089
KOSU 130300Z 32010KT 3/4SM -SN BR BKN009 OVC020 M07/M09 A2993 RMK AO2 P0000 T10721089
KOSU 130257Z 31012KT 1 1/4SM -SN BR BKN011 OVC020 M07/M09 A2993 RMK AO2 P0000 T10721089
KOSU 130253Z 33008KT 3SM -SN BR SCT011 OVC020 M07/M09 A2993 RMK AO2 SLP147 P0000 60000 T10721089 50001
KOSU 130251Z 32008KT 3SM -SN BR SCT009 OVC022 M07/M09 A2993 RMK AO2 P0000
KOSU 130245Z 31010KT 2SM -SN BR BKN007 OVC022 M07/M09 A2993 RMK AO2 VIS 1V4 P0000 T10721089
KOSU 130239Z 31009KT 3/4SM -SN BR BKN007 OVC022 M07/M09 A2993 RMK AO2 P0000 T10721089
KOSU 130232Z 31012KT 1/4SM SN FZFG VV009 M08/M09 A2993 RMK AO2 P0000 T10781089
KOSU 130223Z 30013G20KT 1/2SM SN FZFG VV014 M07/M09 A2993 RMK AO2 P0000 T10721089
KOSU 130213Z 31015G18KT 1 3/4SM -SN BR BKN025 OVC060 M07/M09 A2993 RMK AO2 P0000 T10671089
KOSU 130156Z 29012KT 3SM -SN BR BKN027 BKN040 OVC060 M07/M09 A2993 RMK AO2 P0000 T10721089
KOSU 130153Z 28010KT 1 1/2SM -SN BR BKN027 BKN040 OVC050 M07/M08 A2993 RMK AO2 SLP147 P0000 T10721083
KOSU 130142Z 29011KT 1 1/4SM -SN BR BKN029 OVC050 M07/M09 A2993 RMK AO2 P0000 T10671089
KOSU 130053Z 29012KT 5SM -SN FEW022 BKN036 OVC055 M07/M09 A2993 RMK AO2 SNB2356 SLP146 P0000 T10671094
KOSU 130035Z 31008KT 9SM -SN FEW022 BKN032 OVC060 M07/M09 A2992 RMK AO2 SNB2356 P0000 T10671089
KOSU 130025Z 30013KT 3SM -SN BR OVC027 M07/M09 A2993 RMK AO2 SNB2356 P0000 T10671089
KOSU 130012Z 30015KT 1 3/4SM -SN BKN027 OVC036 M07/M09 A2993 RMK AO2 VIS 1V5 SNB2356 P0000 T10671094
KOSU 122353Z 31013KT 10SM FEW028 SCT050 OVC060 M06/M10 A2992 RMK AO2 SNE03 SLP144 P0000 60000 T10611100 11033 21067 51013
KOSU 122306Z 30008KT 9SM SCT022 BKN065 M07/M09 A2991 RMK AO2 SNE03 P0000 T10671089
KOSU 122253Z 30010KT 8SM -SN BKN026 BKN039 OVC070 M06/M09 A2991 RMK AO2 SNE12B33 SLP138 P0000 T10611089
KOSU 122248Z 31011KT 1SM -SN BKN021 BKN028 OVC070 M06/M09 A2991 RMK AO2 SNE12B33 P0000
KOSU 122240Z 30018G21KT 2 1/2SM -SN SCT022 BKN026 OVC070 M06/M09 A2991 RMK AO2 SNE12B33 P0000 T10611094
KOSU 122153Z 30018G23KT 6SM -SN OVC039 M05/M11 A2988 RMK AO2 SNB48 SLP129 P0000 T10501111
KOSU 122053Z 30017G27KT 10SM FEW048 OVC065 M04/M13 A2986 RMK AO2 PK WND 30028/2017 SNB06E09 SLP122 P0000 60000 T10441133 53001
KOSU 121953Z 31015KT 10SM FEW042 BKN048 OVC070 M03/M13 A2986 RMK AO2 PK WND 30027/1856 SLP120 T10331128
KOSU 121853Z 30017G25KT 10SM FEW048 OVC065 M04/M13 A2986 RMK AO2 PK WND 30026/1825 SLP120 T10391133
KOSU 121753Z 31020G28KT 10SM OVC050 M04/M13 A2986 RMK AO2 PK WND 31028/1748 SNE00 SLP121 P0000 60000 T10441133 11006 21044 50005
KOSU 121653Z COR 31018G27KT 9SM FEW046 M03/M12 A2987 RMK AO2 PK WND 30032/1631 SLP123 P0000 T10331122
KOSU 121553Z 32019G28KT 9SM -SN FEW042 M03/M11 A2987 RMK AO2 PK WND 32030/1454 SLP125 P0000 T10331106
KOSU 121453Z 32022G32KT 9SM -SN FEW060 M03/M10 A2984 RMK AO2 PK WND 32032/1448 SLP115 P0000 60000 T10331100 51026